createdAt,value
2019-04-11T00:01:48.650Z,97620.88
2019-04-11T00:04:18.804Z,97621.58
2019-04-11T00:06:49.893Z,97622.11
2019-04-11T00:09:21.010Z,97626.80
2019-04-11T00:11:52.378Z,97627.70
2019-04-11T00:14:24.098Z,97624.76
2019-04-11T00:16:55.415Z,97623.57
2019-04-11T00:19:27.283Z,97624.97
2019-04-11T00:21:59.328Z,97621.97
2019-04-11T00:24:31.250Z,97622.80
2019-04-11T00:27:02.505Z,97618.06
2019-04-11T00:29:36.669Z,97621.89
2019-04-11T00:32:09.142Z,97625.20
2019-04-11T00:34:39.925Z,97629.47
2019-04-11T00:37:10.762Z,97631.55
2019-04-11T00:39:41.276Z,97633.59
2019-04-11T00:42:12.511Z,97635.57
2019-04-11T00:44:43.420Z,97636.52
2019-04-11T00:47:23.193Z,97640.64
2019-04-11T00:49:54.660Z,97631.92
2019-04-11T00:52:25.360Z,97637.91
2019-04-11T00:54:59.510Z,97640.45
2019-04-11T00:57:30.712Z,97642.48
2019-04-11T01:03:16.682Z,97630.96
2019-04-11T01:05:47.840Z,97633.44
2019-04-11T01:08:19.722Z,97635.57
2019-04-11T01:10:50.402Z,97634.39
2019-04-11T01:13:21.227Z,97639.74
2019-04-11T01:16:13.354Z,97639.27
2019-04-11T01:18:44.447Z,97641.88
2019-04-11T01:21:15.784Z,97643.64
2019-04-11T01:23:47.102Z,97644.34
2019-04-11T01:26:17.820Z,97646.33
2019-04-11T01:29:03.049Z,97648.14
2019-04-11T01:31:35.888Z,97643.11
2019-04-11T01:34:06.556Z,97650.84
2019-04-11T01:36:37.428Z,97647.77
2019-04-11T01:39:26.782Z,97650.91
2019-04-11T01:41:58.705Z,97647.77
2019-04-11T01:44:32.602Z,97649.41
2019-04-11T01:47:04.647Z,97651.16
2019-04-11T01:49:36.476Z,97651.41
2019-04-11T01:52:07.270Z,97652.78
2019-04-11T01:54:37.867Z,97654.49
2019-04-11T01:57:09.656Z,97659.83
2019-04-11T01:59:40.215Z,97663.40
2019-04-11T02:02:38.914Z,97657.70
2019-04-11T02:05:19.152Z,97657.86
2019-04-11T02:07:51.030Z,97661.31
2019-04-11T02:10:24.496Z,97661.63
2019-04-11T02:12:55.347Z,97656.28
2019-04-11T02:15:28.944Z,97664.38
2019-04-11T02:17:59.635Z,97657.02
2019-04-11T02:20:31.226Z,97662.21
2019-04-11T02:23:11.003Z,97665.08
2019-04-11T02:26:01.114Z,97660.31
2019-04-11T02:28:35.601Z,97663.95
2019-04-11T02:31:09.072Z,97666.20
2019-04-11T02:33:38.965Z,97665.80
2019-04-11T02:36:11.724Z,97673.42
2019-04-11T02:38:42.151Z,97670.70
2019-04-11T02:41:14.175Z,97674.45
2019-04-11T02:43:46.819Z,97676.25
2019-04-11T02:46:28.551Z,97674.52
2019-04-11T02:49:05.944Z,97674.73
2019-04-11T02:51:37.414Z,97679.11
2019-04-11T02:54:09.336Z,97680.34
2019-04-11T02:56:40.715Z,97676.80
2019-04-11T02:59:13.361Z,97676.39
2019-04-11T03:14:03.857Z,97693.61
2019-04-11T03:16:46.241Z,97689.38
2019-04-11T03:19:21.133Z,97692.32
2019-04-11T03:21:41.860Z,97693.53
2019-04-11T03:24:13.245Z,97689.77
2019-04-11T03:26:45.794Z,97688.36
2019-04-11T03:29:17.771Z,97691.41
2019-04-11T03:32:32.218Z,97688.94
2019-04-11T03:35:09.523Z,97689.13
2019-04-11T03:37:24.134Z,97698.65
2019-04-11T03:39:45.026Z,97706.50
2019-04-11T03:42:15.962Z,97704.19
2019-04-11T03:44:39.534Z,97707.45
2019-04-11T03:47:16.591Z,97710.06
2019-04-11T03:49:44.959Z,97712.38
2019-04-11T03:52:10.599Z,97704.04
2019-04-11T03:54:42.602Z,97712.72
2019-04-11T03:57:15.573Z,97713.80
2019-04-11T03:59:52.156Z,97721.19
2019-04-11T04:02:24.578Z,97718.55
2019-04-11T04:04:56.802Z,97724.58
2019-04-11T04:07:29.569Z,97723.83
2019-04-11T04:10:05.172Z,97727.52
2019-04-11T04:12:40.276Z,97722.83
2019-04-11T04:15:48.888Z,97730.78
2019-04-11T04:18:19.330Z,97730.47
2019-04-11T04:21:09.174Z,97740.73
2019-04-11T04:23:45.973Z,97740.13
2019-04-11T04:26:17.010Z,97738.81
2019-04-11T04:28:48.258Z,97746.45
2019-04-11T04:31:19.066Z,97742.12
2019-04-11T04:33:51.249Z,97747.95
2019-04-11T04:36:22.417Z,97753.83
2019-04-11T04:38:54.563Z,97748.91
2019-04-11T04:41:37.708Z,97757.67
2019-04-11T04:44:08.438Z,97760.97
2019-04-11T04:46:54.846Z,97762.50
2019-04-11T04:49:18.539Z,97759.82
2019-04-11T04:51:51.033Z,97767.50
2019-04-11T04:54:22.215Z,97766.09
2019-04-11T04:56:54.653Z,97767.92
2019-04-11T04:59:25.901Z,97773.63
2019-04-11T05:14:10.495Z,97766.91
2019-04-11T05:16:44.225Z,97770.61
2019-04-11T05:19:14.995Z,97779.63
2019-04-11T05:21:45.693Z,97777.64
2019-04-11T05:24:16.634Z,97778.50
2019-04-11T05:26:48.138Z,97779.05
2019-04-11T05:29:19.551Z,97791.27
2019-04-11T05:31:51.138Z,97788.09
2019-04-11T05:34:21.653Z,97787.77
2019-04-11T05:37:04.296Z,97787.11
2019-04-11T05:39:38.006Z,97790.70
2019-04-11T05:42:09.203Z,97789.13
2019-04-11T05:44:40.764Z,97794.98
2019-04-11T05:47:18.113Z,97794.76
2019-04-11T05:50:22.184Z,97800.47
2019-04-11T05:52:53.001Z,97800.64
2019-04-11T05:55:30.181Z,97801.16
2019-04-11T05:58:00.909Z,97805.61
2019-04-11T06:00:46.514Z,97806.52
2019-04-11T06:03:17.690Z,97805.61
2019-04-11T06:06:12.870Z,97809.88
2019-04-11T06:08:44.195Z,97804.62
2019-04-11T06:11:24.737Z,97810.00
2019-04-11T06:14:07.389Z,97813.91
2019-04-11T06:16:44.901Z,97811.80
2019-04-11T06:19:30.531Z,97815.13
2019-04-11T06:22:04.584Z,97819.07
2019-04-11T06:24:50.108Z,97823.63
2019-04-11T06:27:28.635Z,97825.63
2019-04-11T06:30:16.396Z,97826.23
2019-04-11T06:33:08.501Z,97826.50
2019-04-11T06:36:13.854Z,97828.65
2019-04-11T06:39:19.127Z,97834.88
2019-04-11T06:42:27.576Z,97831.73
2019-04-11T06:45:23.818Z,97836.59
2019-04-11T06:48:09.372Z,97832.98
2019-04-11T06:50:44.939Z,97839.70
2019-04-11T06:53:19.568Z,97839.58
2019-04-11T06:56:08.285Z,97846.98
2019-04-11T06:58:45.777Z,97841.23
2019-04-11T07:03:22.360Z,97844.39
2019-04-11T07:05:49.653Z,97840.56
2019-04-11T07:08:22.294Z,97834.67
2019-04-11T07:10:58.873Z,97837.50
2019-04-11T07:13:45.475Z,97843.73
2019-04-11T07:16:18.431Z,97843.45
2019-04-11T07:19:22.839Z,97848.64
2019-04-11T07:21:54.022Z,97848.36
2019-04-11T07:24:55.262Z,97851.33
2019-04-11T07:27:28.666Z,97856.93
2019-04-11T07:30:16.581Z,97853.97
2019-04-11T07:32:47.753Z,97855.65
2019-04-11T07:35:52.977Z,97853.72
2019-04-11T07:38:32.049Z,97853.79
2019-04-11T07:41:21.681Z,97855.18
2019-04-11T07:43:52.413Z,97852.64
2019-04-11T07:46:51.582Z,97852.23
2019-04-11T07:49:28.589Z,97856.54
2019-04-11T07:52:02.566Z,97859.92
2019-04-11T07:54:34.707Z,97857.05
2019-04-11T07:57:32.999Z,97857.55
2019-04-11T08:00:44.877Z,97860.76
2019-04-11T08:03:37.937Z,97862.82
2019-04-11T08:06:33.753Z,97863.12
2019-04-11T08:09:15.331Z,97864.40
2019-04-11T08:11:52.281Z,97864.63
2019-04-11T08:14:51.076Z,97861.38
2019-04-11T08:17:30.812Z,97858.30
2019-04-11T08:20:19.388Z,97863.42
2019-04-11T08:22:55.328Z,97855.21
2019-04-11T08:25:33.136Z,97863.73
2019-04-11T08:28:12.374Z,97868.14
2019-04-11T08:31:15.214Z,97869.88
2019-04-11T08:33:46.748Z,97861.09
2019-04-11T08:36:24.423Z,97867.34
2019-04-11T08:38:56.398Z,97867.57
2019-04-11T08:41:44.152Z,97868.14
2019-04-11T08:44:23.897Z,97870.06
2019-04-11T08:47:02.559Z,97875.09
2019-04-11T08:49:44.096Z,97875.73
2019-04-11T08:52:32.094Z,97870.14
2019-04-11T08:55:08.619Z,97874.56
2019-04-11T08:57:44.760Z,97877.26
2019-04-11T09:03:29.516Z,97867.84
2019-04-11T09:06:12.520Z,97869.57
2019-04-11T09:09:00.312Z,97871.79
2019-04-11T09:11:47.016Z,97878.52
2019-04-11T09:14:36.012Z,97875.92
2019-04-11T09:17:12.355Z,97875.92
2019-04-11T09:20:00.096Z,97879.69
2019-04-11T09:22:33.296Z,97875.20
2019-04-11T09:25:30.249Z,97882.09
2019-04-11T09:28:23.240Z,97881.44
2019-04-11T09:31:31.777Z,97882.03
2019-04-11T09:34:21.748Z,97873.11
2019-04-11T09:37:14.440Z,97878.02
2019-04-11T09:40:03.736Z,97883.13
2019-04-11T09:42:53.535Z,97875.81
2019-04-11T09:45:52.576Z,97876.36
2019-04-11T09:48:31.503Z,97873.38
2019-04-11T09:51:09.374Z,97875.41
2019-04-11T09:53:41.004Z,97879.85
2019-04-11T09:56:29.350Z,97873.20
2019-04-11T09:59:08.654Z,97879.47
2019-04-11T10:01:58.328Z,97884.00
2019-04-11T10:04:35.951Z,97880.84
2019-04-11T10:07:44.181Z,97878.91
2019-04-11T10:10:48.984Z,97876.00
2019-04-11T10:13:42.693Z,97873.23
2019-04-11T10:16:50.612Z,97871.29
2019-04-11T10:19:40.116Z,97875.14
2019-04-11T10:22:29.790Z,97876.13
2019-04-11T10:25:19.089Z,97877.84
2019-04-11T10:28:13.231Z,97885.47
2019-04-11T10:31:02.766Z,97883.48
2019-04-11T10:33:55.519Z,97886.95
2019-04-11T10:36:47.827Z,97887.18
2019-04-11T10:39:35.822Z,97880.61
2019-04-11T10:42:10.438Z,97881.02
2019-04-11T10:45:10.015Z,97883.38
2019-04-11T10:47:40.943Z,97885.44
2019-04-11T10:50:19.705Z,97882.30
2019-04-11T10:52:56.538Z,97885.14
2019-04-11T10:55:49.603Z,97886.55
2019-04-11T10:58:22.969Z,97885.97
2019-04-11T11:03:27.288Z,97892.41
2019-04-11T11:05:59.752Z,97898.34
2019-04-11T11:08:37.570Z,97894.58
2019-04-11T11:11:20.526Z,97892.87
2019-04-11T11:14:18.865Z,97890.88
2019-04-11T11:17:09.220Z,97895.28
2019-04-11T11:20:08.527Z,97886.34
2019-04-11T11:22:48.682Z,97889.48
2019-04-11T11:25:28.802Z,97900.81
2019-04-11T11:28:03.617Z,97893.20
2019-04-11T11:30:56.344Z,97887.63
2019-04-11T11:33:30.104Z,97894.27
2019-04-11T11:36:19.525Z,97893.44
2019-04-11T11:39:11.594Z,97898.80
2019-04-11T11:42:02.078Z,97899.81
2019-04-11T11:44:50.233Z,97896.03
2019-04-11T11:47:39.867Z,97888.70
2019-04-11T11:50:18.216Z,97908.19
2019-04-11T11:52:57.598Z,97895.61
2019-04-11T11:55:31.567Z,97894.09
2019-04-11T11:58:16.843Z,97901.77
2019-04-11T12:00:50.753Z,97893.45
2019-04-11T12:03:40.734Z,97904.91
2019-04-11T12:06:12.682Z,97896.84
2019-04-11T12:09:06.562Z,97895.84
2019-04-11T12:11:38.644Z,97889.95
2019-04-11T12:14:22.160Z,97890.45
2019-04-11T12:17:08.597Z,97889.75
2019-04-11T12:19:52.969Z,97895.06
2019-04-11T12:22:20.091Z,97895.34
2019-04-11T12:24:58.452Z,97892.20
2019-04-11T12:27:52.150Z,97897.79
2019-04-11T12:30:34.407Z,97896.56
2019-04-11T12:33:27.696Z,97893.39
2019-04-11T12:36:16.825Z,97887.92
2019-04-11T12:38:55.441Z,97888.44
2019-04-11T12:41:56.477Z,97881.49
2019-04-11T12:44:51.906Z,97896.98
2019-04-11T12:47:59.327Z,97884.26
2019-04-11T12:51:02.549Z,97887.98
2019-04-11T12:53:35.790Z,97880.83
2019-04-11T12:56:26.489Z,97878.55
2019-04-11T12:59:21.557Z,97884.65
2019-04-11T13:04:02.535Z,97873.20
2019-04-11T13:06:50.216Z,97877.20
2019-04-11T13:09:43.809Z,97874.45
2019-04-11T13:12:23.513Z,97879.23
2019-04-11T13:15:02.616Z,97885.52
2019-04-11T13:17:35.442Z,97878.80
2019-04-11T13:20:24.264Z,97880.14
2019-04-11T13:23:00.580Z,97869.88
2019-04-11T13:25:55.813Z,97869.59
2019-04-11T13:28:26.907Z,97871.52
2019-04-11T13:31:16.654Z,97876.55
2019-04-11T13:33:47.567Z,97877.83
2019-04-11T13:36:49.115Z,97867.86
2019-04-11T13:39:20.220Z,97868.72
2019-04-11T13:42:08.550Z,97863.10
2019-04-11T13:44:40.713Z,97867.45
2019-04-11T13:47:28.811Z,97857.59
2019-04-11T13:50:16.106Z,97864.52
2019-04-11T13:53:14.587Z,97868.30
2019-04-11T13:55:48.421Z,97874.27
2019-04-11T13:58:49.778Z,97866.55
2019-04-11T14:01:20.559Z,97865.83
2019-04-11T14:04:08.618Z,97869.72
2019-04-11T14:06:43.883Z,97864.06
2019-04-11T14:09:36.427Z,97868.93
2019-04-11T14:12:13.700Z,97876.50
2019-04-11T14:14:57.058Z,97859.09
2019-04-11T14:17:45.270Z,97854.74
2019-04-11T14:20:30.275Z,97860.95
2019-04-11T14:23:22.784Z,97855.48
2019-04-11T14:26:07.358Z,97862.98
2019-04-11T14:28:47.457Z,97859.48
2019-04-11T14:31:46.626Z,97859.61
2019-04-11T14:34:54.474Z,97856.34
2019-04-11T14:37:49.495Z,97853.53
2019-04-11T14:40:41.637Z,97851.95
2019-04-11T14:43:23.172Z,97859.31
2019-04-11T14:46:18.802Z,97866.65
2019-04-11T14:48:51.696Z,97854.59
2019-04-11T14:51:58.388Z,97859.84
2019-04-11T14:54:32.408Z,97865.89
2019-04-11T14:57:23.408Z,97860.83
2019-04-11T15:03:45.634Z,97857.35
2019-04-11T15:06:25.186Z,97867.63
2019-04-11T15:09:16.994Z,97867.49
2019-04-11T15:11:49.935Z,97864.94
2019-04-11T15:14:40.307Z,97861.44
2019-04-11T15:17:16.626Z,97861.22
2019-04-11T15:19:52.014Z,97861.94
2019-04-11T15:22:40.597Z,97865.20
2019-04-11T15:25:22.074Z,97870.99
2019-04-11T15:28:12.717Z,97868.38
2019-04-11T15:30:43.632Z,97877.76
2019-04-11T15:33:46.252Z,97879.63
2019-04-11T15:36:18.258Z,97872.14
2019-04-11T15:39:08.046Z,97874.06
2019-04-11T15:41:42.086Z,97870.81
2019-04-11T15:44:41.775Z,97870.58
2019-04-11T15:47:13.807Z,97874.35
2019-04-11T15:50:09.245Z,97867.95
2019-04-11T15:52:48.701Z,97877.25
2019-04-11T15:55:59.321Z,97884.34
2019-04-11T15:58:36.994Z,97880.36
2019-04-11T16:01:29.345Z,97885.69
2019-04-11T16:04:08.019Z,97881.70
2019-04-11T16:06:56.316Z,97881.25
2019-04-11T16:09:26.965Z,97875.09
2019-04-11T16:12:19.192Z,97877.59
2019-04-11T16:14:49.967Z,97872.56
2019-04-11T16:17:39.423Z,97874.20
2019-04-11T16:20:18.871Z,97877.24
2019-04-11T16:23:11.368Z,97879.66
2019-04-11T16:25:45.484Z,97887.69
2019-04-11T16:28:35.770Z,97891.42
2019-04-11T16:31:09.452Z,97883.97
2019-04-11T16:34:15.850Z,97887.81
2019-04-11T16:37:05.388Z,97890.77
2019-04-11T16:39:55.297Z,97895.70
2019-04-11T16:42:36.083Z,97891.61
2019-04-11T16:45:39.769Z,97884.16
2019-04-11T16:48:13.274Z,97887.70
2019-04-11T16:50:43.869Z,97891.70
2019-04-11T16:53:14.527Z,97898.44
2019-04-11T16:55:45.294Z,97887.86
2019-04-11T16:58:19.274Z,97890.95
2019-04-11T17:27:18.048Z,97902.67
2019-04-11T17:32:30.642Z,97901.91
2019-04-11T17:35:04.082Z,97912.88
2019-04-11T17:37:34.336Z,97911.42
2019-04-11T17:40:07.041Z,97915.34
2019-04-11T17:42:37.187Z,97913.41
2019-04-11T17:45:07.824Z,97910.09
2019-04-11T17:47:38.369Z,97919.03
2019-04-11T17:50:09.211Z,97920.83
2019-04-11T17:52:39.764Z,97919.50
2019-04-11T17:55:11.035Z,97922.93
2019-04-11T17:57:41.384Z,97931.55
2019-04-11T18:00:18.819Z,97939.47
2019-04-11T18:02:49.914Z,97926.08
2019-04-11T18:05:20.255Z,97920.78
2019-04-11T18:07:51.849Z,97941.20
2019-04-11T18:10:25.523Z,97945.70
2019-04-11T18:12:56.307Z,97954.17
2019-04-11T18:15:28.850Z,97955.11
2019-04-11T18:17:58.997Z,97957.33
2019-04-11T18:20:29.831Z,97959.64
2019-04-11T18:23:00.204Z,97963.73
2019-04-11T18:25:31.895Z,97959.37
2019-04-11T18:28:02.844Z,97960.67
2019-04-11T18:30:34.691Z,97972.55
2019-04-11T18:33:05.297Z,97979.70
2019-04-11T18:35:36.136Z,97973.36
2019-04-11T18:38:07.096Z,97977.95
2019-04-11T18:40:37.948Z,97987.77
2019-04-11T18:46:13.058Z,97994.85
2019-04-11T18:48:43.725Z,97994.09
2019-04-11T18:51:14.916Z,97991.84
2019-04-11T18:53:45.410Z,97996.64
2019-04-11T18:56:15.822Z,98001.27
2019-04-11T19:17:03.574Z,98023.04
2019-04-11T19:19:34.457Z,98017.22
2019-04-11T19:24:47.315Z,98021.34
2019-04-11T19:33:34.230Z,98039.31
2019-04-11T19:36:04.475Z,98033.67
2019-04-11T19:38:35.952Z,98034.39
2019-04-11T19:41:06.938Z,98033.98
2019-04-11T19:43:37.373Z,98032.96
2019-04-11T19:46:07.722Z,98036.45
2019-04-11T19:48:38.373Z,98034.07
2019-04-11T19:51:10.959Z,98037.25
2019-04-11T19:53:41.373Z,98034.67
2019-04-11T19:56:33.051Z,98031.28
2019-04-11T19:59:03.442Z,98036.50
2019-04-11T20:01:34.944Z,98039.73
2019-04-11T20:06:37.548Z,98032.60
2019-04-11T20:09:09.078Z,98040.27
2019-04-11T20:11:39.520Z,98030.28
2019-04-11T20:14:11.350Z,98034.94
2019-04-11T20:16:45.230Z,98030.15
2019-04-11T20:19:13.937Z,98031.26
2019-04-11T20:21:46.080Z,98036.30
2019-04-11T20:24:16.920Z,98035.45
2019-04-11T20:26:49.730Z,98028.62
2019-04-11T20:29:21.402Z,98036.77
2019-04-11T20:31:51.419Z,98035.84
2019-04-11T20:34:27.239Z,98027.45
2019-04-11T20:36:54.804Z,98036.11
2019-04-11T20:39:25.192Z,98037.05
2019-04-11T20:41:55.871Z,98035.02
2019-04-11T20:44:27.423Z,98037.88
2019-04-11T20:47:00.498Z,98044.51
2019-04-11T20:49:32.345Z,98040.34
2019-04-11T20:52:02.767Z,98041.58
2019-04-11T20:54:33.134Z,98044.23
2019-04-11T20:57:03.596Z,98042.29
2019-04-11T21:03:15.619Z,98041.58
2019-04-11T21:05:45.980Z,98045.25
2019-04-11T21:08:16.154Z,98039.76
2019-04-11T21:10:46.391Z,98042.70
2019-04-11T21:13:16.586Z,98049.70
2019-04-11T21:15:46.935Z,98050.89
2019-04-11T21:18:17.129Z,98044.92
2019-04-11T21:20:47.620Z,98046.77
2019-04-11T21:23:24.312Z,98048.56
2019-04-11T21:25:49.767Z,98048.98
2019-04-11T21:28:19.953Z,98057.73
2019-04-11T21:30:50.486Z,98056.80
2019-04-11T21:33:20.655Z,98059.86
2019-04-11T21:35:50.819Z,98065.72
2019-04-11T21:38:21.021Z,98063.39
2019-04-11T21:40:51.205Z,98057.31
2019-04-11T21:43:21.326Z,98069.80
2019-04-11T21:45:51.531Z,98066.70
2019-04-11T21:48:21.732Z,98073.59
2019-04-11T21:50:51.904Z,98070.17
2019-04-11T21:53:22.118Z,98068.95
2019-04-11T21:55:52.521Z,98070.57
2019-04-11T21:58:22.709Z,98073.44
2019-04-11T22:01:03.833Z,98071.83
2019-04-11T22:03:34.049Z,98079.44
2019-04-11T22:06:04.366Z,98080.55
2019-04-11T22:08:35.124Z,98079.13
2019-04-11T22:11:09.812Z,98071.83
2019-04-11T22:13:37.931Z,98078.63
2019-04-11T22:16:13.453Z,98077.81
2019-04-11T22:18:41.475Z,98070.02
2019-04-11T22:21:12.971Z,98075.08
2019-04-11T22:23:48.808Z,98072.44
2019-04-11T22:26:15.629Z,98076.48
2019-04-11T22:28:45.921Z,98081.64
2019-04-11T22:31:16.257Z,98077.97
2019-04-11T22:34:00.523Z,98072.89
2019-04-11T22:36:30.957Z,98080.39
2019-04-11T22:39:01.620Z,98077.12
2019-04-11T22:41:32.053Z,98074.08
2019-04-11T22:44:02.309Z,98081.84
2019-04-11T22:46:32.656Z,98076.27
2019-04-11T22:49:03.005Z,98080.34
2019-04-11T22:51:33.222Z,98085.38
2019-04-11T22:54:03.392Z,98082.70
2019-04-11T22:56:33.673Z,98080.70
2019-04-11T22:59:03.919Z,98083.06
2019-04-11T23:03:16.702Z,98079.63
2019-04-11T23:05:46.952Z,98087.70
2019-04-11T23:08:19.261Z,98083.77
2019-04-11T23:10:49.740Z,98086.38
2019-04-11T23:13:19.903Z,98081.20
2019-04-11T23:15:50.150Z,98074.83
2019-04-11T23:18:20.352Z,98078.08
2019-04-11T23:20:50.678Z,98087.63
2019-04-11T23:23:20.902Z,98084.60
2019-04-11T23:25:51.119Z,98088.08
2019-04-11T23:28:21.241Z,98083.05
2019-04-11T23:30:51.484Z,98089.02
2019-04-11T23:33:22.147Z,98083.70
2019-04-11T23:35:52.539Z,98091.41
2019-04-11T23:38:23.897Z,98083.56
2019-04-11T23:40:54.925Z,98087.86
2019-04-11T23:43:26.386Z,98093.84
2019-04-11T23:45:56.675Z,98090.82
2019-04-11T23:48:27.123Z,98082.98
2019-04-11T23:50:57.359Z,98091.81
2019-04-11T23:53:29.139Z,98087.45
2019-04-11T23:56:00.715Z,98084.53
2019-04-11T23:58:32.095Z,98086.84
